createdAt,value
2019-02-02T00:01:39.106Z,33.63
2019-02-02T00:04:10.197Z,34.40
2019-02-02T00:06:40.313Z,35.97
2019-02-02T00:09:10.502Z,34.13
2019-02-02T00:11:40.629Z,35.87
2019-02-02T00:14:10.746Z,35.00
2019-02-02T00:16:40.763Z,35.17
2019-02-02T00:19:10.796Z,38.50
2019-02-02T00:21:41.013Z,39.70
2019-02-02T00:24:11.125Z,39.80
2019-02-02T00:26:41.239Z,34.97
2019-02-02T00:29:12.570Z,38.60
2019-02-02T00:31:43.969Z,36.90
2019-02-02T00:34:14.465Z,31.33
2019-02-02T00:36:44.814Z,38.47
2019-02-02T00:39:15.306Z,38.10
2019-02-02T00:41:45.561Z,33.73
2019-02-02T00:44:17.622Z,33.47
2019-02-02T00:46:47.884Z,31.83
2019-02-02T00:49:17.869Z,35.47
2019-02-02T00:51:47.986Z,34.27
2019-02-02T00:54:18.467Z,30.50
2019-02-02T00:56:50.686Z,38.10
2019-02-02T00:59:21.304Z,38.73
2019-02-02T01:01:51.565Z,38.50
2019-02-02T01:04:33.355Z,39.43
2019-02-02T01:07:05.730Z,38.73
2019-02-02T01:09:36.567Z,41.87
2019-02-02T01:12:06.833Z,39.70
2019-02-02T01:14:36.976Z,37.03
2019-02-02T01:17:07.023Z,38.93
2019-02-02T01:19:37.343Z,33.97
2019-02-02T01:22:07.749Z,45.27
2019-02-02T01:24:38.112Z,35.10
2019-02-02T01:27:08.524Z,39.00
2019-02-02T01:29:38.655Z,37.03
2019-02-02T01:32:09.027Z,38.30
2019-02-02T01:34:39.160Z,34.50
2019-02-02T01:37:09.147Z,39.57
2019-02-02T01:39:39.226Z,38.50
2019-02-02T01:42:09.247Z,39.13
2019-02-02T01:44:39.297Z,32.80
2019-02-02T01:47:09.189Z,38.70
2019-02-02T01:49:39.288Z,36.33
2019-02-02T01:52:09.197Z,37.00
2019-02-02T01:54:39.259Z,32.03
2019-02-02T01:57:09.210Z,48.07
2019-02-02T01:59:39.251Z,45.90
2019-02-02T02:02:09.343Z,38.47
2019-02-02T02:04:39.786Z,36.73
2019-02-02T02:07:11.217Z,37.03
2019-02-02T02:09:41.215Z,49.23
2019-02-02T02:12:11.089Z,47.50
2019-02-02T02:14:41.079Z,52.03
2019-02-02T02:17:10.842Z,41.63
2019-02-02T02:19:41.065Z,41.33
2019-02-02T02:22:11.282Z,40.17
2019-02-02T02:24:42.695Z,42.67
2019-02-02T02:27:12.609Z,35.77
2019-02-02T02:29:42.790Z,40.30
2019-02-02T02:32:13.437Z,36.67
2019-02-02T02:34:43.719Z,36.40
2019-02-02T02:37:14.003Z,36.13
2019-02-02T02:39:45.282Z,30.60
2019-02-02T02:42:15.709Z,39.20
2019-02-02T02:44:45.734Z,38.57
2019-02-02T02:47:16.072Z,46.57
2019-02-02T02:49:46.798Z,53.50
2019-02-02T02:52:16.720Z,85.60
2019-02-02T02:54:46.788Z,138.53
2019-02-02T02:57:17.445Z,70.67
2019-02-02T02:59:47.691Z,47.87
2019-02-02T03:02:17.727Z,39.53
2019-02-02T03:04:47.798Z,45.07
2019-02-02T03:07:19.554Z,60.40
2019-02-02T03:09:49.929Z,49.40
2019-02-02T03:12:20.055Z,40.93
2019-02-02T03:14:50.302Z,31.83
2019-02-02T03:17:20.343Z,59.90
2019-02-02T03:19:50.432Z,72.80
2019-02-02T03:22:20.220Z,115.23
2019-02-02T03:24:50.021Z,50.67
2019-02-02T03:27:19.970Z,46.50
2019-02-02T03:29:52.423Z,41.87
2019-02-02T03:32:22.438Z,38.70
2019-02-02T03:34:52.447Z,41.20
2019-02-02T03:37:22.609Z,44.40
2019-02-02T03:39:52.535Z,38.43
2019-02-02T03:42:22.596Z,37.83
2019-02-02T03:44:53.250Z,36.20
2019-02-02T03:47:23.439Z,37.87
2019-02-02T03:49:53.989Z,36.17
2019-02-02T03:52:24.104Z,36.13
2019-02-02T03:54:54.336Z,38.07
2019-02-02T03:57:24.395Z,59.87
2019-02-02T03:59:54.998Z,46.47
2019-02-02T04:02:25.218Z,38.83
2019-02-02T04:04:55.289Z,44.90
2019-02-02T04:07:25.463Z,46.03
2019-02-02T04:09:55.443Z,41.40
2019-02-02T04:12:25.594Z,38.23
2019-02-02T04:14:55.697Z,45.57
2019-02-02T04:17:26.024Z,39.27
2019-02-02T04:19:56.067Z,39.30
2019-02-02T04:22:26.155Z,42.07
2019-02-02T04:24:56.067Z,45.07
2019-02-02T04:27:26.192Z,42.53
2019-02-02T04:29:56.073Z,42.17
2019-02-02T04:32:26.137Z,40.83
2019-02-02T04:34:56.210Z,38.17
2019-02-02T04:37:26.169Z,37.67
2019-02-02T04:39:56.243Z,37.77
2019-02-02T04:42:26.317Z,40.90
2019-02-02T04:44:56.611Z,39.03
2019-02-02T04:47:26.931Z,37.97
2019-02-02T04:49:56.967Z,39.97
2019-02-02T04:52:27.048Z,44.90
2019-02-02T04:54:57.000Z,42.57
2019-02-02T04:57:27.062Z,43.73
2019-02-02T04:59:57.183Z,41.43
2019-02-02T05:02:30.260Z,83.63
2019-02-02T05:04:59.022Z,63.50
2019-02-02T05:07:28.978Z,58.70
2019-02-02T05:09:59.516Z,56.37
2019-02-02T05:12:31.465Z,51.73
2019-02-02T05:15:02.282Z,38.67
2019-02-02T05:17:32.231Z,49.47
2019-02-02T05:20:02.158Z,48.30
2019-02-02T05:22:32.240Z,49.27
2019-02-02T05:25:02.334Z,47.23
2019-02-02T05:27:32.358Z,53.10
2019-02-02T05:30:15.628Z,49.53
2019-02-02T05:32:45.529Z,48.00
2019-02-02T05:35:15.336Z,46.70
2019-02-02T05:37:45.263Z,43.43
2019-02-02T05:40:16.731Z,44.47
2019-02-02T05:42:46.941Z,51.93
2019-02-02T05:45:18.289Z,47.97
2019-02-02T05:47:48.159Z,53.17
2019-02-02T05:50:22.370Z,55.80
2019-02-02T05:52:52.403Z,54.37
2019-02-02T05:55:22.557Z,58.57
2019-02-02T05:57:52.517Z,51.83
2019-02-02T06:00:33.005Z,49.70
2019-02-02T06:03:03.004Z,53.93
2019-02-02T06:05:32.852Z,40.03
2019-02-02T06:08:02.869Z,48.83
2019-02-02T06:10:32.829Z,57.43
2019-02-02T06:13:02.801Z,45.80
2019-02-02T06:15:34.121Z,52.40
2019-02-02T06:18:04.980Z,46.57
2019-02-02T06:20:34.822Z,57.10
2019-02-02T06:23:04.786Z,46.80
2019-02-02T06:25:34.698Z,47.33
2019-02-02T06:28:05.028Z,50.57
2019-02-02T06:30:38.063Z,53.67
2019-02-02T06:33:08.059Z,61.07
2019-02-02T06:35:37.868Z,62.17
2019-02-02T06:38:11.333Z,54.40
2019-02-02T06:40:41.564Z,50.30
2019-02-02T06:43:11.638Z,59.57
2019-02-02T06:45:41.541Z,49.87
2019-02-02T06:48:11.523Z,62.07
2019-02-02T06:50:41.589Z,53.93
2019-02-02T06:53:12.545Z,57.80
2019-02-02T06:55:42.909Z,79.53
2019-02-02T06:58:13.475Z,58.97
2019-02-02T07:00:43.779Z,65.30
2019-02-02T07:03:13.941Z,70.97
2019-02-02T07:05:44.034Z,53.30
2019-02-02T07:08:14.402Z,61.83
2019-02-02T07:10:44.579Z,57.77
2019-02-02T07:13:14.883Z,70.57
2019-02-02T07:15:44.680Z,59.80
2019-02-02T07:18:14.757Z,69.10
2019-02-02T07:20:45.905Z,76.73
2019-02-02T07:23:16.407Z,57.37
2019-02-02T07:25:46.349Z,72.20
2019-02-02T07:28:16.329Z,61.33
2019-02-02T07:30:46.349Z,68.90
2019-02-02T07:33:16.412Z,56.60
2019-02-02T07:35:46.384Z,71.20
2019-02-02T07:38:16.757Z,72.83
2019-02-02T07:40:47.641Z,63.60
2019-02-02T07:43:20.016Z,66.70
2019-02-02T07:45:55.231Z,66.80
2019-02-02T07:48:26.896Z,61.90
2019-02-02T07:50:56.922Z,59.37
2019-02-02T07:53:31.051Z,61.03
2019-02-02T07:56:08.808Z,77.93
2019-02-02T07:58:38.750Z,59.77
2019-02-02T08:01:09.063Z,60.47
2019-02-02T08:03:40.579Z,55.60
2019-02-02T08:06:12.970Z,68.90
2019-02-02T08:08:43.838Z,50.70
2019-02-02T08:11:19.547Z,57.30
2019-02-02T08:14:03.560Z,70.13
2019-02-02T08:16:37.436Z,68.03
2019-02-02T08:19:53.800Z,55.97
2019-02-02T08:22:42.161Z,72.43
2019-02-02T08:25:13.197Z,65.90
2019-02-02T08:27:43.972Z,60.23
2019-02-02T08:30:21.346Z,58.50
2019-02-02T08:32:51.271Z,62.20
2019-02-02T08:35:24.104Z,76.23
2019-02-02T08:37:54.587Z,67.87
2019-02-02T08:40:26.264Z,60.53
2019-02-02T08:42:56.522Z,61.67
2019-02-02T08:45:26.360Z,63.17
2019-02-02T08:47:56.295Z,59.93
2019-02-02T08:50:29.178Z,56.07
2019-02-02T08:53:06.452Z,60.20
2019-02-02T08:55:43.018Z,65.53
2019-02-02T08:58:12.931Z,63.33
2019-02-02T09:01:03.459Z,60.20
2019-02-02T09:03:23.869Z,62.33
2019-02-02T09:05:53.820Z,74.97
2019-02-02T09:08:23.985Z,78.57
2019-02-02T09:10:54.278Z,53.47
2019-02-02T09:13:24.763Z,59.20
2019-02-02T09:15:54.716Z,66.53
2019-02-02T09:18:25.003Z,63.53
2019-02-02T09:20:54.962Z,64.43
2019-02-02T09:23:25.315Z,57.70
2019-02-02T09:25:55.194Z,44.53
2019-02-02T09:28:25.181Z,75.43
2019-02-02T09:30:55.251Z,74.43
2019-02-02T09:33:25.212Z,145.90
2019-02-02T09:35:55.355Z,84.47
2019-02-02T09:38:25.392Z,78.03
2019-02-02T09:40:55.417Z,61.47
2019-02-02T09:43:25.447Z,60.33
2019-02-02T09:45:55.419Z,64.67
2019-02-02T09:48:25.203Z,64.50
2019-02-02T09:50:55.181Z,69.50
2019-02-02T09:53:25.503Z,75.63
2019-02-02T09:55:55.866Z,69.90
2019-02-02T09:58:26.602Z,69.07
2019-02-02T10:00:56.665Z,70.50
2019-02-02T10:03:27.836Z,63.07
2019-02-02T10:05:58.849Z,63.83
2019-02-02T10:08:29.413Z,61.97
2019-02-02T10:10:59.910Z,73.97
2019-02-02T10:13:30.205Z,58.23
2019-02-02T10:16:01.562Z,65.70
2019-02-02T10:18:32.011Z,60.50
2019-02-02T10:21:04.069Z,71.33
2019-02-02T10:23:34.089Z,66.03
2019-02-02T10:26:04.497Z,61.43
2019-02-02T10:28:34.510Z,68.17
2019-02-02T10:31:04.487Z,65.67
2019-02-02T10:33:34.562Z,66.07
2019-02-02T10:36:04.575Z,52.70
2019-02-02T10:38:34.856Z,63.43
2019-02-02T10:41:09.158Z,62.37
2019-02-02T10:43:39.306Z,61.53
2019-02-02T10:46:10.858Z,62.63
2019-02-02T10:48:41.429Z,64.03
2019-02-02T10:51:12.190Z,58.03
2019-02-02T10:53:42.352Z,64.93
2019-02-02T10:56:13.420Z,61.67
2019-02-02T10:58:43.333Z,66.23
2019-02-02T11:01:13.334Z,55.33
2019-02-02T11:03:43.854Z,73.17
2019-02-02T11:06:15.127Z,60.90
2019-02-02T11:08:45.284Z,61.23
2019-02-02T11:11:15.516Z,62.50
2019-02-02T11:13:45.484Z,63.93
2019-02-02T11:16:15.443Z,61.87
2019-02-02T11:18:45.807Z,63.00
2019-02-02T11:21:15.851Z,73.97
2019-02-02T11:23:47.484Z,61.10
2019-02-02T11:26:17.752Z,58.57
2019-02-02T11:28:47.924Z,64.87
2019-02-02T11:31:17.944Z,55.90
2019-02-02T11:34:22.541Z,50.90
2019-02-02T11:37:16.709Z,61.70
2019-02-02T11:39:46.886Z,57.73
2019-02-02T11:42:16.994Z,69.57
2019-02-02T11:44:47.688Z,71.67
2019-02-02T11:47:17.885Z,58.89
2019-02-02T11:49:48.470Z,60.55
2019-02-02T11:52:18.341Z,58.70
2019-02-02T11:54:48.440Z,55.23
2019-02-02T11:57:20.760Z,59.30
2019-02-02T11:59:51.451Z,63.87
2019-02-02T12:02:21.971Z,57.80
2019-02-02T12:04:52.169Z,69.57
2019-02-02T12:07:23.081Z,54.03
2019-02-02T12:09:53.505Z,53.40
2019-02-02T12:12:24.144Z,63.30
2019-02-02T12:14:56.872Z,65.07
2019-02-02T12:17:25.860Z,60.93
2019-02-02T12:19:56.031Z,65.70
2019-02-02T12:22:26.107Z,63.80
2019-02-02T12:24:56.244Z,84.47
2019-02-02T12:27:26.416Z,74.60
2019-02-02T12:29:57.898Z,54.03
2019-02-02T12:32:28.642Z,50.13
2019-02-02T12:34:58.864Z,53.23
2019-02-02T12:37:29.037Z,62.70
2019-02-02T12:39:59.212Z,65.00
2019-02-02T12:42:29.989Z,67.73
2019-02-02T12:45:01.003Z,62.07
2019-02-02T12:47:32.434Z,75.07
2019-02-02T12:50:02.474Z,63.13
2019-02-02T12:52:34.490Z,63.07
2019-02-02T12:55:04.763Z,55.20
2019-02-02T12:57:34.843Z,51.63
2019-02-02T13:00:08.487Z,57.93
2019-02-02T13:02:38.819Z,55.37
2019-02-02T13:05:09.319Z,50.13
2019-02-02T13:07:39.733Z,56.57
2019-02-02T13:10:13.167Z,58.47
2019-02-02T13:12:43.431Z,58.63
2019-02-02T13:15:13.334Z,50.50
2019-02-02T13:17:44.366Z,55.03
2019-02-02T13:20:14.502Z,49.93
2019-02-02T13:22:44.959Z,44.43
2019-02-02T13:25:17.155Z,46.50
2019-02-02T13:27:47.052Z,55.50
2019-02-02T13:30:31.696Z,58.70
2019-02-02T13:33:01.817Z,57.63
2019-02-02T13:35:33.548Z,63.40
2019-02-02T13:38:04.064Z,53.90
2019-02-02T13:40:34.166Z,54.13
2019-02-02T13:43:04.283Z,46.63
2019-02-02T13:45:35.723Z,64.53
2019-02-02T13:48:06.278Z,54.10
2019-02-02T13:50:36.346Z,50.20
2019-02-02T13:53:07.637Z,56.30
2019-02-02T13:55:39.761Z,53.50
2019-02-02T13:58:09.906Z,57.17
2019-02-02T14:00:40.025Z,52.77
2019-02-02T14:03:10.478Z,55.33
2019-02-02T14:05:44.924Z,50.83
2019-02-02T14:08:15.642Z,49.10
2019-02-02T14:10:46.157Z,43.70
2019-02-02T14:13:16.945Z,47.40
2019-02-02T14:15:47.002Z,47.67
2019-02-02T14:18:17.030Z,40.83
2019-02-02T14:20:47.986Z,46.80
2019-02-02T14:23:18.004Z,41.80
2019-02-02T14:25:48.149Z,41.20
2019-02-02T14:28:28.050Z,44.70
2019-02-02T14:30:49.563Z,46.27
2019-02-02T14:33:19.579Z,49.10
2019-02-02T14:35:55.267Z,46.60
2019-02-02T14:38:25.250Z,47.37
2019-02-02T14:40:55.734Z,48.10
2019-02-02T14:43:25.936Z,43.47
2019-02-02T14:45:55.909Z,48.10
2019-02-02T14:48:26.273Z,43.97
2019-02-02T14:50:56.192Z,43.73
2019-02-02T14:53:27.766Z,51.90
2019-02-02T14:55:58.222Z,55.93
2019-02-02T14:58:28.328Z,51.17
2019-02-02T15:00:58.752Z,49.93
2019-02-02T15:03:29.805Z,44.27
2019-02-02T15:05:59.953Z,49.77
2019-02-02T15:08:29.888Z,47.00
2019-02-02T15:10:59.944Z,46.53
2019-02-02T15:13:29.929Z,46.33
2019-02-02T15:15:59.772Z,44.17
2019-02-02T15:18:29.800Z,46.77
2019-02-02T15:20:59.972Z,45.60
2019-02-02T15:23:29.910Z,43.83
2019-02-02T15:25:59.805Z,47.47
2019-02-02T15:28:29.850Z,46.93
2019-02-02T15:31:00.075Z,49.57
2019-02-02T15:33:37.498Z,43.67
2019-02-02T15:36:04.821Z,51.03
2019-02-02T15:38:38.415Z,47.77
2019-02-02T15:41:08.355Z,51.90
2019-02-02T15:43:39.618Z,41.73
2019-02-02T15:46:09.631Z,40.07
2019-02-02T15:48:42.523Z,43.73
2019-02-02T15:51:11.547Z,41.97
2019-02-02T15:53:45.326Z,38.00
2019-02-02T15:56:15.493Z,33.70
2019-02-02T15:58:45.305Z,30.63
2019-02-02T16:01:15.209Z,24.92
2019-02-02T16:03:49.640Z,35.33
2019-02-02T16:06:17.664Z,28.67
2019-02-02T16:08:49.977Z,26.83
2019-02-02T16:11:20.076Z,25.67
2019-02-02T16:14:15.167Z,27.63
2019-02-02T16:16:49.243Z,29.87
2019-02-02T16:19:23.978Z,29.37
2019-02-02T16:22:04.256Z,30.74
2019-02-02T16:24:38.824Z,26.77
2019-02-02T16:27:14.037Z,33.20
2019-02-02T16:29:44.576Z,24.67
2019-02-02T16:32:14.719Z,23.33
2019-02-02T16:34:46.008Z,29.50
2019-02-02T16:37:15.945Z,32.63
2019-02-02T16:39:46.207Z,27.90
2019-02-02T16:42:16.497Z,27.17
2019-02-02T16:44:46.672Z,29.17
2019-02-02T16:47:16.963Z,31.90
2019-02-02T16:49:47.082Z,29.07
2019-02-02T16:52:17.663Z,27.03
2019-02-02T16:54:47.819Z,30.43
2019-02-02T16:57:36.304Z,25.70
2019-02-02T17:00:08.351Z,27.80
2019-02-02T17:02:38.671Z,23.43
2019-02-02T17:05:10.371Z,26.90
2019-02-02T17:07:46.385Z,24.43
2019-02-02T17:10:19.566Z,29.00
2019-02-02T17:12:52.614Z,25.23
2019-02-02T17:15:22.933Z,30.80
2019-02-02T17:17:53.074Z,27.97
2019-02-02T17:20:25.702Z,29.80
2019-02-02T17:22:55.673Z,31.90
2019-02-02T17:25:25.405Z,29.80
2019-02-02T17:27:55.454Z,32.53
2019-02-02T17:30:25.486Z,28.33
2019-02-02T17:32:57.319Z,23.97
2019-02-02T17:35:27.138Z,29.77
2019-02-02T17:37:58.075Z,24.20
2019-02-02T17:40:29.612Z,28.30
2019-02-02T17:42:59.540Z,26.57
2019-02-02T17:45:30.760Z,25.83
2019-02-02T17:48:00.780Z,32.40
2019-02-02T17:50:30.597Z,33.47
2019-02-02T17:53:00.661Z,37.13
2019-02-02T17:55:30.712Z,46.57
2019-02-02T17:58:01.161Z,33.37
2019-02-02T18:01:09.694Z,29.00
2019-02-02T18:03:39.772Z,25.43
2019-02-02T18:06:10.382Z,48.40
2019-02-02T18:08:40.584Z,50.57
2019-02-02T18:11:10.491Z,37.53
2019-02-02T18:13:41.348Z,27.77
2019-02-02T18:16:11.503Z,37.67
2019-02-02T18:18:41.546Z,48.60
2019-02-02T18:21:11.484Z,41.03
2019-02-02T18:23:41.949Z,41.60
2019-02-02T18:26:12.495Z,44.47
2019-02-02T18:28:43.280Z,39.63
2019-02-02T18:32:12.389Z,33.60
2019-02-02T18:34:02.665Z,27.22
2019-02-02T18:36:32.802Z,27.83
2019-02-02T18:39:02.909Z,28.47
2019-02-02T18:41:33.972Z,33.97
2019-02-02T18:44:04.330Z,26.83
2019-02-02T18:46:34.538Z,34.63
2019-02-02T18:49:04.840Z,37.37
2019-02-02T18:51:34.775Z,28.17
2019-02-02T18:54:18.105Z,39.40
2019-02-02T18:57:07.844Z,38.83
2019-02-02T18:59:40.908Z,32.80
2019-02-02T19:02:10.747Z,36.63
2019-02-02T19:04:41.275Z,39.60
2019-02-02T19:07:11.525Z,31.93
2019-02-02T19:09:41.825Z,30.37
2019-02-02T19:12:11.796Z,29.27
2019-02-02T19:14:42.058Z,30.30
2019-02-02T19:17:15.519Z,30.84
2019-02-02T19:19:45.714Z,36.70
2019-02-02T19:22:15.710Z,33.73
2019-02-02T19:24:45.781Z,32.80
2019-02-02T19:27:16.898Z,30.17
2019-02-02T19:29:47.034Z,32.77
2019-02-02T19:32:16.811Z,29.43
2019-02-02T19:34:46.633Z,29.57
2019-02-02T19:37:16.872Z,31.63
2019-02-02T19:39:47.129Z,28.80
2019-02-02T19:42:17.603Z,30.73
2019-02-02T19:44:47.660Z,28.50
2019-02-02T19:47:18.309Z,30.97
2019-02-02T19:49:48.255Z,29.07
2019-02-02T19:52:20.239Z,25.23
2019-02-02T19:54:50.475Z,26.17
2019-02-02T19:57:20.682Z,27.03
2019-02-02T19:59:50.733Z,30.27
2019-02-02T20:02:21.896Z,34.27
2019-02-02T20:04:53.881Z,26.47
2019-02-02T20:07:26.443Z,27.83
2019-02-02T20:09:56.942Z,26.43
2019-02-02T20:12:27.000Z,27.13
2019-02-02T20:14:57.018Z,42.63
2019-02-02T20:17:27.486Z,38.30
2019-02-02T20:19:57.451Z,34.57
2019-02-02T20:22:27.445Z,37.03
2019-02-02T20:24:58.014Z,28.37
2019-02-02T20:27:28.007Z,33.73
2019-02-02T20:29:58.339Z,33.50
2019-02-02T20:32:28.451Z,31.33
2019-02-02T20:34:58.581Z,36.20
2019-02-02T20:37:29.303Z,32.83
2019-02-02T20:39:59.497Z,34.37
2019-02-02T20:42:29.465Z,34.53
2019-02-02T20:44:59.542Z,34.02
2019-02-02T20:47:29.880Z,35.33
2019-02-02T20:50:00.000Z,34.23
2019-02-02T20:52:30.493Z,31.63
2019-02-02T20:55:00.497Z,30.40
2019-02-02T20:57:30.971Z,33.53
2019-02-02T21:00:01.582Z,36.00
2019-02-02T21:02:33.131Z,31.23
2019-02-02T21:05:04.424Z,34.70
2019-02-02T21:07:34.961Z,29.57
2019-02-02T21:10:05.844Z,34.40
2019-02-02T21:12:36.260Z,34.13
2019-02-02T21:15:08.257Z,31.00
2019-02-02T21:17:38.523Z,33.30
2019-02-02T21:20:28.210Z,34.47
2019-02-02T21:23:03.008Z,32.33
2019-02-02T21:25:34.038Z,32.73
2019-02-02T21:28:06.185Z,33.27
2019-02-02T21:30:41.318Z,36.14
2019-02-02T21:33:11.700Z,33.90
2019-02-02T21:35:41.515Z,32.57
2019-02-02T21:38:11.728Z,35.90
2019-02-02T21:40:41.974Z,35.37
2019-02-02T21:43:12.030Z,35.50
2019-02-02T21:45:42.292Z,33.70
2019-02-02T21:48:12.377Z,23.77
2019-02-02T21:50:42.504Z,31.20
2019-02-02T21:53:12.870Z,29.03
2019-02-02T21:55:43.349Z,34.67
2019-02-02T21:58:13.673Z,32.37
2019-02-02T22:00:44.142Z,31.83
2019-02-02T22:03:14.291Z,30.57
2019-02-02T22:05:44.287Z,31.20
2019-02-02T22:08:15.982Z,30.97
2019-02-02T22:10:45.926Z,32.03
2019-02-02T22:13:16.432Z,25.00
2019-02-02T22:15:46.496Z,27.87
2019-02-02T22:18:21.860Z,37.67
2019-02-02T22:20:51.703Z,35.00
2019-02-02T22:23:21.714Z,32.27
2019-02-02T22:25:51.930Z,32.90
2019-02-02T22:28:21.900Z,32.70
2019-02-02T22:30:52.346Z,37.90
2019-02-02T22:33:23.548Z,36.80
2019-02-02T22:35:53.945Z,34.15
2019-02-02T22:38:24.937Z,33.73
2019-02-02T22:40:55.430Z,31.07
2019-02-02T22:43:25.889Z,29.37
2019-02-02T22:45:56.202Z,32.33
2019-02-02T22:48:26.267Z,28.92
2019-02-02T22:50:56.255Z,31.07
2019-02-02T22:53:27.291Z,35.73
2019-02-02T22:55:57.473Z,29.03
2019-02-02T22:58:27.946Z,31.03
2019-02-02T23:01:07.761Z,34.17
2019-02-02T23:03:45.340Z,34.07
2019-02-02T23:07:18.017Z,33.33
2019-02-02T23:10:43.302Z,39.37
2019-02-02T23:13:40.302Z,37.27
2019-02-02T23:16:30.372Z,31.53
2019-02-02T23:19:01.073Z,30.27
2019-02-02T23:21:31.678Z,35.90
2019-02-02T23:24:01.897Z,31.50
2019-02-02T23:26:32.197Z,37.70
2019-02-02T23:29:02.748Z,38.93
2019-02-02T23:31:32.906Z,34.00
2019-02-02T23:34:02.806Z,32.30
2019-02-02T23:36:34.208Z,34.07
2019-02-02T23:39:08.028Z,36.93
2019-02-02T23:41:38.458Z,38.93
2019-02-02T23:44:09.503Z,31.97
2019-02-02T23:46:40.658Z,35.40
2019-02-02T23:49:10.674Z,33.57
2019-02-02T23:51:40.787Z,33.67
2019-02-02T23:54:11.324Z,38.37
2019-02-02T23:56:41.252Z,38.27
2019-02-02T23:59:12.294Z,35.30
